Mission Hills, California
Current Conditions -  °F | °C
As of 10:35 AM on Monday 20 Oct 2014 (Local Time) from KLPC Reporting Station
Overcast Overcast  
Wind Chill: 68°   Ceiling: 2100
Heat Index: 68°   Visibility: 10mi
Dew Point: 55°   Wind: 9mph
Humidity: 64%   Direction: 10°N
Pressure: 29.99"   Gusts: NA
Location:  34.69°N, 120.44°W
Report Text: KLPC 201735Z AUTO 01008KT 10SM OVC021 20/13 A2999 RMK AO1
Loading
Personal Weather Stations






























Interactive Weather Map
Tropical Storm Tracking
New forecast layout! Learn more

10-Day Weather Forecast

Advertisements
Track Severe Weather on mobile